Aurora, CO (80044)

3:45 PM MDT on August 24, 2016 (GMT -0600)
Murray Johnston | | Change Station

Elev 5420 ft 39.75 °N, 104.82 °W | Updated 11 minutes ago

Light Rain
Light Rain
59.4 °F
Feels Like 59.4 °F
N
2.7
Wind Variable Wind from SSE

Today
High -- | Low -- °F
--% Chance of Precip.
Yesterday
High -- | Low -- °F
Precip. -- in
Pressure 30.12 in
Visibility 10.0 miles
Clouds Scattered Clouds 3500 ft
Mostly Cloudy 8000 ft
Overcast 11000 ft
Dew Point 56 °F
Humidity 90%
Rainfall 0.15 in
Snow Depth Not available.
6:20 AM 7:41 PM
Waning Gibbous, 53% visible
METAR KBKF 242058Z 27005KT 10SM -RA SCT035 BKN080 OVC110 14/13 A3028 RMK AO2A SLP199 P0000 60001 55002 T01430129
Pressure 30.12 in
Visibility 10.0 miles
Clouds Scattered Clouds 3500 ft
Mostly Cloudy 8000 ft
Overcast 11000 ft
Dew Point 56 °F
Humidity 90%
Rainfall 0.15 in
Snow Depth Not available.
6:20 AM 7:41 PM
Waning Gibbous, 53% visible
METAR KBKF 242058Z 27005KT 10SM -RA SCT035 BKN080 OVC110 14/13 A3028 RMK AO2A SLP199 P0000 60001 55002 T01430129

10-Day Weather Forecast

Almanac

Astronomy

Aug. 24, 2016 Rise Set
Actual Time
Civil Twilight
Nautical Twilight
Astronomical Twilight
Moon
Length of Visible Light
Length of Day
Tomorrow will be .
, % of the Moon is Illuminated

Today's Extremes

State Highs State Lows

Community

WunderPhotos

Upload Photos

1,934,722 photos uploaded!

WunderBlog® & News

Nearby

Air Quality

  Air Quality AQ Index Pollutant
Not available.

Snow Depth

Station Depth Elevation

Earthquake Activity

City Distance Mag. Time & Date
Minimum magnitude displayed is 2.5.

Coastal Water Temperatures

Place Temperature

Stations

Nearby Weather Stations

Station Location Temp. Windchill Dew Point Humidity Wind Precip. Elev Updated Type
                   

Watches & Warnings

There are currently no watches in effect.